Airfield :
LOGIN :

Register | Disclaimer

   EN    FR    IT 

 










Legend :    VFR   Marginal VFR   IFR   Intensive IFR   Very Intensive IFR
Visi :
Ceiling :
>= 8 km
>= 3000ft
5 to 8 km
1000 to 3000 ft
1500m to 5 km
500 to 1000 ft
800 to 1500m
200 to 500 ft
< 800m
< 200 ft
Symbols :   Thunderstorms  Fog  Heavy snow  Heavy precipitations  Wind > 20 kt
SIGMETs :     Misc.  Thunderstorms  Icing  Turbulence  Mountain Waves  Volcanic Ashes






- Airport Elevation : 2096 ft
- IATA code : AUR


LFLW - Aurillac

CURRENT METAR :
  • 301630Z AUTO 25004KT 220V290 9999 SCT036 SCT044 BKN054 14/07 Q1019 NOSIG

EXPIRED METARs :
  • 301600Z AUTO 24005KT 200V270 9999 SCT038 BKN049 14/07 Q1019 NOSIG
  • 301530Z AUTO 29005KT 260V330 9999 BKN037 BKN043 OVC058 14/07 Q1019 NOSIG
  • 301500Z AUTO 25004KT 190V300 9999 FEW036 OVC060 15/08 Q1020 NOSIG
  • 301430Z AUTO 31007KT 270V340 9999 FEW035 OVC060 15/07 Q1020 NOSIG
  • 301400Z AUTO 30006KT 250V350 9999 FEW036 OVC052 14/07 Q1021 NOSIG

TAF TAF LFLW
Valid from the 30 at 15:00 until the 31 at 00:00 UTC


301400Z 3015/3024 27008KT 9999 BKN050
BECMG 3017/3019 18008KT
BECMG 3019/3021 12008KT NSC



MET'MAP, your aeronautical weather chart ! - Copyright ORBIFLY December 2007 - Disclaimer

ORBIFLY MET'MAP TEAM :

Programming & Development : Alexandra Zaïnal
Original concept : Baudouin d'Aumeries
Technical & hardware support : Manuel Goepfert
Assistance : Marc-Olivier Méhu




SOURCES & CREDITS :

   NOAA